Changshu, China
Current Conditions -  °F | °C
As of 7:00 AM on Monday 22 Dec 2014 (Local Time) from ZSSS Reporting Station
Clear Clear  
Wind Chill: 25°   Ceiling: Unl
Heat Index: 30°   Visibility: 5mi
Dew Point: 23°   Wind: 4mph
Humidity: 75%   Direction: 260°W
Pressure: 30.48"   Gusts: NA
Location:  31.63°N, 120.73°E
Report Text: ZSSS 212300Z 26002MPS 8000 NSC M01/M05 Q1032 NOSIG
Loading
Personal Weather Stations






























Interactive Weather Map New forecast layout! Learn more

10-Day Weather Forecast

Advertisements
Track Severe Weather on mobile